Time;durP1;ratioP1;P1;durP2;ratioP2;P2;SDS_P1;SDS_P2;PMS_P1;PMS_P2;Temp;Humidity;BMP_temperature;BMP_pressure;BME280_temperature;BME280_humidity;BME280_pressure;Samples;Min_cycle;Max_cycle;Signal;HPM_P1;HPM_P2
2022/07/09 00:04:51;;;;;;;7.18;2.83;;;;;;;16.56;55.17;101091.13;10470143;28;20128;-70
2022/07/09 00:09:53;;;;;;;5.25;2.70;;;;;;;16.59;54.93;101087.44;10469408;28;20168;-69
2022/07/09 00:14:54;;;;;;;7.20;2.90;;;;;;;16.41;55.55;101085.94;10469954;28;20045;-68
2022/07/09 00:19:56;;;;;;;5.97;2.85;;;;;;;16.28;55.76;101090.34;10468447;28;20489;-69
2022/07/09 00:25:00;;;;;;;9.20;3.42;;;;;;;16.34;56.09;101087.31;10470162;28;20141;-68
2022/07/09 00:30:03;;;;;;;6.35;2.80;;;;;;;16.27;56.24;101080.72;10468434;28;20174;-69
2022/07/09 00:35:05;;;;;;;7.15;2.97;;;;;;;16.28;55.83;101079.78;10469208;28;20076;-68
2022/07/09 00:40:07;;;;;;;7.00;3.33;;;;;;;16.23;55.88;101074.81;10468455;28;20076;-70
2022/07/09 00:45:09;;;;;;;6.47;3.08;;;;;;;16.12;56.48;101088.69;10469001;28;20080;-69
2022/07/09 00:50:11;;;;;;;6.45;2.78;;;;;;;15.95;56.56;101086.31;10468129;28;20173;-69
2022/07/09 00:55:13;;;;;;;6.20;3.00;;;;;;;16.02;56.61;101079.66;10468737;28;20086;-68
2022/07/09 01:00:15;;;;;;;7.65;3.70;;;;;;;16.08;56.36;101065.25;10467673;28;20075;-68
2022/07/09 01:05:17;;;;;;;7.03;3.20;;;;;;;16.05;56.43;101070.72;10468852;28;20110;-68
2022/07/09 01:10:19;;;;;;;6.22;3.22;;;;;;;15.97;56.38;101063.31;10467389;28;20049;-68
2022/07/09 01:15:21;;;;;;;6.72;3.67;;;;;;;15.82;56.51;101066.06;10468060;28;20509;-68
2022/07/09 01:20:30;;;;;;;5.95;3.25;;;;;;;15.75;56.92;101067.41;10466439;28;20164;-67
2022/07/09 01:25:35;;;;;;;7.38;3.60;;;;;;;15.66;57.22;101060.91;10466524;28;20058;-68
2022/07/09 01:30:39;;;;;;;8.57;3.40;;;;;;;15.54;57.39;101066.97;10465464;28;20096;-70
2022/07/09 01:35:41;;;;;;;5.45;3.20;;;;;;;15.43;57.79;101064.09;10466984;28;20796;-69
2022/07/09 01:40:43;;;;;;;7.32;3.33;;;;;;;15.37;57.96;101061.84;10466196;28;20133;-69
2022/07/09 01:45:44;;;;;;;4.78;3.20;;;;;;;15.33;57.86;101049.78;10465987;28;20105;-69
2022/07/09 01:50:46;;;;;;;4.97;3.45;;;;;;;15.34;58.01;101040.94;10465587;28;20087;-70
2022/07/09 01:55:48;;;;;;;6.40;3.40;;;;;;;15.23;58.25;101046.88;10466091;28;20067;-70
2022/07/09 02:00:49;;;;;;;7.68;3.80;;;;;;;15.20;58.14;101033.06;10465844;28;20113;-69
2022/07/09 02:05:51;;;;;;;8.77;3.35;;;;;;;15.18;58.13;101030.53;10472616;28;20084;-69
2022/07/09 02:10:54;;;;;;;10.07;3.70;;;;;;;15.12;58.57;101024.78;10455383;28;20044;-69
2022/07/09 02:15:56;;;;;;;6.75;3.70;;;;;;;14.96;58.91;101018.75;10439773;28;20088;-69
2022/07/09 02:20:58;;;;;;;4.20;3.30;;;;;;;14.90;58.99;101013.84;10473191;28;20064;-69
2022/07/09 02:25:59;;;;;;;7.28;3.63;;;;;;;14.92;58.93;101011.97;10474020;28;20180;-69
2022/07/09 02:31:01;;;;;;;6.22;3.45;;;;;;;14.93;58.95;101008.38;10473431;28;20559;-69
2022/07/09 02:36:03;;;;;;;7.80;4.10;;;;;;;14.93;58.54;101006.59;10473886;28;20055;-69
2022/07/09 02:41:05;;;;;;;7.30;3.83;;;;;;;14.80;59.14;101005.63;10473692;28;20086;-69
2022/07/09 02:46:07;;;;;;;7.55;4.10;;;;;;;14.80;59.04;101003.00;10472541;28;20114;-70
2022/07/09 02:51:09;;;;;;;6.90;3.83;;;;;;;14.63;59.12;100997.91;10473177;28;20059;-69
2022/07/09 02:56:11;;;;;;;6.78;4.30;;;;;;;14.58;59.19;100999.97;10472598;28;20136;-70
2022/07/09 03:01:13;;;;;;;5.82;3.70;;;;;;;14.49;59.35;101009.25;10462978;28;20041;-70
2022/07/09 03:06:15;;;;;;;6.68;3.40;;;;;;;14.32;60.04;100998.84;10475223;28;20153;-69
2022/07/09 03:11:16;;;;;;;6.13;4.00;;;;;;;14.41;59.60;100997.47;10472107;28;20527;-69
2022/07/09 03:16:18;;;;;;;7.03;3.72;;;;;;;14.42;59.66;100997.38;10474295;28;20142;-68
2022/07/09 03:21:20;;;;;;;6.82;4.20;;;;;;;14.40;59.70;101003.66;10455712;28;20053;-69
2022/07/09 03:26:22;;;;;;;6.88;3.88;;;;;;;14.40;59.57;100999.22;10438002;28;20084;-68
2022/07/09 03:31:23;;;;;;;5.75;3.50;;;;;;;14.48;59.57;101001.41;10472624;28;20143;-68
2022/07/09 03:36:25;;;;;;;5.85;3.55;;;;;;;14.53;59.14;100994.97;10472989;28;20378;-70
2022/07/09 03:41:27;;;;;;;6.80;4.07;;;;;;;14.56;58.99;100989.53;10471248;28;20556;-67
2022/07/09 03:46:29;;;;;;;6.95;3.95;;;;;;;14.57;59.06;100987.75;10471595;28;20567;-68
2022/07/09 03:51:31;;;;;;;7.20;4.25;;;;;;;14.55;59.25;100987.81;10472314;28;20454;-68
2022/07/09 03:56:32;;;;;;;8.52;4.15;;;;;;;14.73;58.97;100988.53;10472114;28;20076;-68
2022/07/09 04:01:34;;;;;;;7.63;4.18;;;;;;;14.83;58.53;100994.06;10472141;28;20199;-68
2022/07/09 04:06:36;;;;;;;6.18;3.10;;;;;;;15.00;58.42;100988.63;10470609;28;20489;-68
2022/07/09 04:11:38;;;;;;;6.68;3.35;;;;;;;15.08;57.92;100987.19;10452502;28;20091;-68
2022/07/09 04:16:40;;;;;;;6.68;3.65;;;;;;;15.35;57.79;100988.13;10453319;28;20587;-68
2022/07/09 04:21:42;;;;;;;6.40;3.90;;;;;;;16.40;55.54;100981.31;10471667;28;20062;-68
2022/07/09 04:26:44;;;;;;;6.47;3.45;;;;;;;16.42;54.72;100985.53;10470186;28;20052;-68
2022/07/09 04:31:46;;;;;;;4.45;3.00;;;;;;;17.39;52.55;100986.72;10470031;28;20505;-68
2022/07/09 04:36:49;;;;;;;5.20;2.97;;;;;;;17.32;52.61;100978.38;10470364;28;20656;-68
2022/07/09 04:41:51;;;;;;;7.70;3.00;;;;;;;18.03;51.36;100985.53;10470014;28;20059;-68
2022/07/09 04:46:53;;;;;;;5.68;3.05;;;;;;;18.83;49.39;100984.72;10469672;28;20882;-68
2022/07/09 04:51:54;;;;;;;6.45;2.90;;;;;;;19.91;46.87;100980.47;10468051;28;20559;-70
2022/07/09 04:56:56;;;;;;;5.95;2.70;;;;;;;20.81;45.02;100974.56;10469121;28;20190;-68
2022/07/09 05:01:58;;;;;;;6.18;2.70;;;;;;;22.06;42.60;100971.38;10469518;28;20640;-69
2022/07/09 05:07:00;;;;;;;5.60;2.90;;;;;;;23.45;40.09;100963.47;10468839;28;20132;-69
2022/07/09 05:12:02;;;;;;;4.35;2.20;;;;;;;24.94;37.07;100958.09;10468863;28;20143;-69
2022/07/09 05:17:05;;;;;;;6.53;2.63;;;;;;;24.98;36.76;100951.44;10465593;28;20484;-70
2022/07/09 05:22:07;;;;;;;5.07;2.53;;;;;;;24.74;36.78;100957.50;10465725;28;20449;-69
2022/07/09 05:27:09;;;;;;;5.07;2.67;;;;;;;24.83;36.33;100953.03;10433940;28;20045;-69
2022/07/09 05:32:11;;;;;;;5.10;2.22;;;;;;;25.61;35.01;100944.66;10468232;28;20079;-70
2022/07/09 05:37:13;;;;;;;5.15;2.10;;;;;;;23.88;37.50;100966.25;10468590;28;20080;-71
2022/07/09 05:42:15;;;;;;;4.53;2.42;;;;;;;22.12;40.51;100970.81;10449006;28;20052;-70
2022/07/09 05:47:17;;;;;;;5.13;2.33;;;;;;;21.21;42.84;100970.16;10468188;28;20045;-70
2022/07/09 05:52:18;;;;;;;6.97;2.40;;;;;;;20.63;44.27;100971.69;10448851;28;20194;-68
2022/07/09 05:57:20;;;;;;;5.72;2.60;;;;;;;20.62;44.31;100980.63;10467523;28;20141;-69
2022/07/09 06:02:22;;;;;;;4.53;2.25;;;;;;;20.40;45.24;100975.41;10467700;28;20137;-68
2022/07/09 06:07:24;;;;;;;8.15;2.85;;;;;;;20.12;45.54;100986.66;10442189;28;20067;-70
2022/07/09 06:12:30;;;;;;;6.22;2.40;;;;;;;20.19;45.97;100983.34;10467424;28;20055;-69
2022/07/09 06:17:32;;;;;;;4.35;2.40;;;;;;;20.71;45.33;100984.31;10466344;28;20171;-70
2022/07/09 06:22:34;;;;;;;6.63;2.85;;;;;;;21.02;45.15;100978.91;10441774;28;20167;-69
2022/07/09 06:27:36;;;;;;;5.85;2.85;;;;;;;21.37;44.78;100969.69;10466961;28;20076;-70
2022/07/09 06:32:37;;;;;;;6.05;2.30;;;;;;;21.29;45.18;100972.13;10469303;28;20056;-69
2022/07/09 06:37:41;;;;;;;8.30;2.55;;;;;;;21.46;44.73;100974.16;10456238;28;20563;-69
2022/07/09 06:42:42;;;;;;;8.15;2.53;;;;;;;21.80;44.77;100970.19;10474363;28;20718;-69
2022/07/09 06:47:44;;;;;;;8.52;3.00;;;;;;;22.15;43.90;100959.03;10474439;28;20130;-70
2022/07/09 06:52:46;;;;;;;11.55;3.30;;;;;;;22.70;43.02;100967.06;10474180;28;20049;-69
2022/07/09 06:57:48;;;;;;;6.82;2.70;;;;;;;23.44;41.83;100959.09;10452707;28;20075;-70
2022/07/09 07:02:50;;;;;;;8.52;2.85;;;;;;;23.64;41.30;100962.47;10454562;28;20068;-70
2022/07/09 07:07:52;;;;;;;11.00;4.22;;;;;;;23.66;41.59;100969.38;10473465;28;20102;-70
2022/07/09 07:12:54;;;;;;;11.63;4.28;;;;;;;23.61;41.58;100958.31;10473327;28;20124;-70
2022/07/09 07:17:56;;;;;;;10.82;4.10;;;;;;;23.42;42.01;100967.28;10473063;28;20052;-70
2022/07/09 07:22:59;;;;;;;14.38;4.65;;;;;;;23.17;42.26;100961.72;10473039;28;20045;-70
2022/07/09 07:28:02;;;;;;;6.80;3.88;;;;;;;22.83;42.46;100957.94;10472541;28;20060;-70
2022/07/09 07:33:04;;;;;;;12.43;4.85;;;;;;;22.80;42.50;100958.25;10455113;28;20084;-70
2022/07/09 07:38:06;;;;;;;9.52;4.63;;;;;;;22.80;42.65;100960.91;10469320;28;20083;-70
2022/07/09 07:43:11;;;;;;;11.30;4.75;;;;;;;22.82;42.34;100951.75;10471626;28;20115;-70
2022/07/09 07:48:13;;;;;;;8.85;4.32;;;;;;;23.08;41.88;100950.13;10472289;28;20088;-70
2022/07/09 07:53:15;;;;;;;10.55;4.90;;;;;;;23.63;41.04;100951.00;10439636;28;20163;-70
2022/07/09 07:58:17;;;;;;;11.35;4.25;;;;;;;24.03;40.26;100943.34;10467755;28;20544;-70
2022/07/09 08:03:19;;;;;;;15.57;4.47;;;;;;;24.91;39.22;100926.31;10467958;28;20060;-69
2022/07/09 08:08:21;;;;;;;12.38;4.68;;;;;;;26.44;36.14;100923.97;10469245;28;20052;-71
2022/07/09 08:13:25;;;;;;;7.93;3.63;;;;;;;27.85;34.05;100925.63;10466469;28;20709;-70
2022/07/09 08:18:27;;;;;;;12.27;3.35;;;;;;;28.62;32.62;100918.25;10468595;28;20122;-70
2022/07/09 08:23:28;;;;;;;10.07;3.17;;;;;;;29.24;31.68;100916.84;10469397;28;20109;-71
2022/07/09 08:28:30;;;;;;;10.48;3.55;;;;;;;29.33;30.90;100913.03;10465225;28;20078;-71
2022/07/09 08:33:32;;;;;;;7.80;2.80;;;;;;;28.30;32.26;100911.31;10465694;28;20049;-71
2022/07/09 08:38:34;;;;;;;7.30;2.80;;;;;;;27.81;33.16;100918.13;10464102;28;20114;-71
2022/07/09 08:43:37;;;;;;;8.50;3.30;;;;;;;28.12;32.27;100905.41;10444600;28;20149;-68
2022/07/09 08:48:42;;;;;;;7.90;3.30;;;;;;;28.65;31.53;100905.25;10456896;28;20706;-68
2022/07/09 08:53:44;;;;;;;6.45;2.55;;;;;;;29.05;30.50;100904.00;10460207;28;20484;-70
2022/07/09 08:58:46;;;;;;;7.05;2.40;;;;;;;28.02;31.46;100900.28;10445980;28;21002;-70
2022/07/09 09:03:48;;;;;;;5.55;2.28;;;;;;;26.83;33.61;100898.09;10461411;28;20146;-71
2022/07/09 09:08:55;;;;;;;11.20;2.63;;;;;;;27.33;33.33;100892.34;10459474;28;20064;-71
2022/07/09 09:13:57;;;;;;;6.40;2.17;;;;;;;28.06;32.50;100884.63;10460326;28;20044;-71
2022/07/09 09:19:00;;;;;;;3.97;1.80;;;;;;;27.81;31.52;100880.47;10455896;28;20143;-70
2022/07/09 09:24:03;;;;;;;6.70;2.47;;;;;;;28.37;30.64;100881.84;10442307;28;20080;-70
2022/07/09 09:29:05;;;;;;;7.43;1.98;;;;;;;28.63;30.91;100866.91;10463384;28;20554;-72
2022/07/09 09:34:14;;;;;;;4.38;1.90;;;;;;;27.52;32.72;100870.41;10461696;28;20048;-70
2022/07/09 09:39:24;;;;;;;3.22;1.60;;;;;;;26.86;32.02;100878.09;10461502;28;20253;-70
2022/07/09 09:44:30;;;;;;;4.53;1.95;;;;;;;26.69;33.67;100874.63;10467682;28;20052;-72
2022/07/09 09:49:35;;;;;;;5.28;2.10;;;;;;;26.50;33.83;100873.19;10468846;28;20495;-71
2022/07/09 09:54:42;;;;;;;12.57;2.85;;;;;;;26.25;34.38;100878.72;10433036;28;20102;-70
2022/07/09 09:59:45;;;;;;;4.35;1.88;;;;;;;26.61;32.88;100874.66;10468545;28;20393;-70
2022/07/09 10:04:47;;;;;;;5.13;1.80;;;;;;;27.54;31.33;100865.69;10465408;28;20146;-71
2022/07/09 10:09:58;;;;;;;3.63;1.70;;;;;;;27.32;31.34;100848.53;10461182;28;20064;-70
2022/07/09 10:15:01;;;;;;;3.75;1.70;;;;;;;27.38;31.56;100853.19;10462955;28;20058;-70
2022/07/09 10:20:05;;;;;;;5.97;1.88;;;;;;;26.99;31.46;100841.66;10462300;28;20139;-70
2022/07/09 10:25:08;;;;;;;4.25;1.80;;;;;;;27.80;30.62;100836.63;10461734;28;20448;-70
2022/07/09 10:30:31;;;;;;;5.15;1.80;;;;;;;29.02;28.69;100828.94;10461512;28;20527;-70
2022/07/09 10:35:57;;;;;;;5.32;1.70;;;;;;;28.79;28.87;100826.34;10458824;28;20388;-70
2022/07/09 10:40:59;;;;;;;4.15;1.90;;;;;;;29.02;29.43;100815.47;10462036;28;20102;-69
2022/07/09 10:46:10;;;;;;;3.67;1.40;;;;;;;29.15;27.75;100812.94;10464084;28;20244;-69
2022/07/09 10:51:20;;;;;;;3.80;1.40;;;;;;;28.86;28.05;100796.84;10436227;28;20059;-71
2022/07/09 10:56:22;;;;;;;4.00;1.67;;;;;;;28.54;28.85;100789.16;10463999;28;20040;-70
2022/07/09 11:01:27;;;;;;;4.53;1.63;;;;;;;28.04;29.84;100789.84;10463035;28;20053;-70
2022/07/09 11:06:29;;;;;;;5.88;1.80;;;;;;;28.26;29.70;100794.31;10462142;28;20508;-71
2022/07/09 11:11:31;;;;;;;3.90;1.65;;;;;;;28.50;29.24;100799.47;10462026;28;20566;-70
2022/07/09 11:16:32;;;;;;;3.10;1.50;;;;;;;28.41;29.41;100792.50;10463587;28;20580;-70
2022/07/09 11:21:34;;;;;;;2.97;1.50;;;;;;;28.62;29.41;100781.81;10462302;28;20578;-71
2022/07/09 11:26:36;;;;;;;5.85;1.92;;;;;;;28.37;29.61;100784.97;10448972;28;20581;-71
2022/07/09 11:31:49;;;;;;;6.80;1.77;;;;;;;28.19;29.52;100771.88;10469410;28;20378;-70
2022/07/09 11:36:54;;;;;;;3.00;1.50;;;;;;;27.98;30.36;100777.97;10470223;28;20489;-71
2022/07/09 11:41:57;;;;;;;6.80;1.80;;;;;;;27.90;30.67;100771.84;10467040;28;20499;-71
2022/07/09 11:47:06;;;;;;;5.53;1.85;;;;;;;27.58;31.07;100774.78;10455070;28;20248;-71
2022/07/09 11:52:17;;;;;;;3.00;1.48;;;;;;;28.00;30.89;100765.19;10464309;28;20056;-71
2022/07/09 11:57:21;;;;;;;3.15;1.73;;;;;;;28.33;29.97;100757.63;10465236;28;20440;-71
2022/07/09 12:02:29;;;;;;;4.70;1.77;;;;;;;28.50;29.65;100760.94;10461089;28;20055;-70
2022/07/09 12:07:32;;;;;;;3.40;1.75;;;;;;;28.55;29.58;100751.28;10461448;28;20143;-70
2022/07/09 12:12:34;;;;;;;7.18;1.60;;;;;;;28.08;29.59;100753.50;10463688;28;20166;-70
2022/07/09 12:17:37;;;;;;;4.50;1.65;;;;;;;27.82;29.72;100742.34;10465150;28;20168;-70
2022/07/09 12:22:40;;;;;;;4.88;1.77;;;;;;;28.08;29.75;100737.34;10465262;28;20114;-70
2022/07/09 12:27:42;;;;;;;4.00;1.60;;;;;;;28.52;28.69;100729.28;10463329;28;20560;-70
2022/07/09 12:32:44;;;;;;;3.72;1.70;;;;;;;28.66;28.74;100725.75;10463192;28;20106;-70
2022/07/09 12:37:46;;;;;;;2.42;1.55;;;;;;;28.49;28.73;100719.72;10447378;28;20045;-70
2022/07/09 12:42:48;;;;;;;3.17;1.65;;;;;;;28.70;28.76;100716.25;10464084;28;20048;-70
2022/07/09 12:47:50;;;;;;;5.05;1.60;;;;;;;28.67;28.60;100704.00;10463271;28;20080;-70
2022/07/09 12:52:51;;;;;;;3.35;1.80;;;;;;;28.60;27.82;100697.72;10464743;28;20807;-71
2022/07/09 12:57:53;;;;;;;3.97;1.80;;;;;;;28.65;27.32;100689.91;10459755;28;20190;-71
2022/07/09 13:02:55;;;;;;;8.65;2.40;;;;;;;28.33;28.21;100698.41;10463559;28;20285;-70
2022/07/09 13:07:57;;;;;;;4.60;1.70;;;;;;;27.86;28.84;100689.88;10461140;28;20522;-71
2022/07/09 13:12:58;;;;;;;5.43;1.90;;;;;;;27.82;28.74;100686.72;10462580;28;20110;-70
2022/07/09 13:18:00;;;;;;;2.65;1.50;;;;;;;27.91;28.81;100690.16;10462896;28;20143;-70
2022/07/09 13:23:02;;;;;;;3.60;1.52;;;;;;;27.85;28.52;100672.91;10464418;28;20394;-71
2022/07/09 13:28:04;;;;;;;3.65;1.73;;;;;;;27.69;29.08;100669.56;10462066;28;20090;-70
2022/07/09 13:33:05;;;;;;;2.83;1.58;;;;;;;27.72;28.89;100674.53;10464511;28;20198;-70
2022/07/09 13:38:07;;;;;;;5.10;1.60;;;;;;;27.56;29.14;100661.28;10463738;28;20500;-70
2022/07/09 13:43:09;;;;;;;4.88;1.70;;;;;;;27.88;29.38;100667.16;10443085;28;20144;-70
2022/07/09 13:48:10;;;;;;;3.72;1.50;;;;;;;27.85;29.44;100655.97;10462536;28;20476;-70
2022/07/09 13:53:12;;;;;;;3.35;1.58;;;;;;;28.03;28.83;100637.59;10461478;28;20095;-69
2022/07/09 13:58:14;;;;;;;4.13;1.70;;;;;;;27.90;29.37;100632.03;10460235;28;20562;-69
2022/07/09 14:03:16;;;;;;;4.43;1.70;;;;;;;28.10;28.76;100627.72;10462532;28;20054;-69
2022/07/09 14:08:18;;;;;;;3.63;1.70;;;;;;;28.24;28.81;100614.25;10459403;28;20045;-69
2022/07/09 14:13:21;;;;;;;2.17;1.38;;;;;;;28.22;28.48;100620.84;10454242;28;20101;-69
2022/07/09 14:18:23;;;;;;;3.92;1.52;;;;;;;28.10;28.84;100607.06;10442335;28;20402;-70
2022/07/09 14:23:25;;;;;;;4.53;1.67;;;;;;;27.76;28.85;100601.44;10461630;28;20055;-69
2022/07/09 14:28:27;;;;;;;3.40;1.42;;;;;;;27.78;28.81;100604.78;10459322;28;20202;-69
2022/07/09 14:33:29;;;;;;;2.42;1.38;;;;;;;27.52;29.15;100607.88;10463039;28;20570;-69
2022/07/09 14:38:30;;;;;;;3.20;1.67;;;;;;;26.98;29.66;100609.06;10460826;28;20140;-69
2022/07/09 14:43:33;;;;;;;3.35;1.50;;;;;;;26.60;30.56;100604.69;10462291;28;20202;-69
2022/07/09 14:48:35;;;;;;;3.08;1.30;;;;;;;26.50;30.90;100610.25;10462588;28;20080;-69
2022/07/09 14:53:37;;;;;;;3.72;1.70;;;;;;;26.26;31.60;100594.28;10463776;28;20058;-69
2022/07/09 14:58:44;;;;;;;3.63;1.75;;;;;;;26.09;31.83;100610.66;10469214;28;20148;-69
2022/07/09 15:03:46;;;;;;;3.45;1.50;;;;;;;25.79;32.60;100602.38;10468985;28;20102;-69
2022/07/09 15:08:48;;;;;;;4.15;1.40;;;;;;;25.69;33.02;100601.72;10457421;28;20466;-69
2022/07/09 15:13:49;;;;;;;3.13;1.50;;;;;;;25.64;33.61;100601.44;10464803;28;20696;-68
2022/07/09 15:18:51;;;;;;;2.97;1.50;;;;;;;25.64;33.78;100611.31;10465409;28;20135;-69
2022/07/09 15:23:53;;;;;;;4.80;1.92;;;;;;;25.01;35.64;100619.25;10465982;28;20102;-69
2022/07/09 15:28:55;;;;;;;4.20;1.83;;;;;;;24.28;38.62;100635.16;10467242;28;20090;-68
2022/07/09 15:33:57;;;;;;;6.22;2.33;;;;;;;23.77;41.95;100642.41;10464441;28;20544;-69
2022/07/09 15:38:58;;;;;;;4.20;1.90;;;;;;;23.04;43.89;100663.25;10445502;28;20715;-70
2022/07/09 15:44:04;;;;;;;4.07;2.20;;;;;;;22.89;46.04;100669.25;10449270;28;20677;-70
2022/07/09 15:49:06;;;;;;;7.35;2.50;;;;;;;22.58;48.54;100679.41;10430753;28;20139;-69
2022/07/09 15:54:08;;;;;;;3.88;2.33;;;;;;;22.06;49.35;100688.97;10452504;28;20128;-70
2022/07/09 15:59:10;;;;;;;4.28;2.40;;;;;;;21.97;49.09;100702.28;10450370;28;20076;-70
2022/07/09 16:04:11;;;;;;;4.30;2.45;;;;;;;21.82;49.90;100692.09;10442317;28;20131;-70
2022/07/09 16:09:13;;;;;;;4.05;2.20;;;;;;;21.73;49.82;100686.81;10441289;28;20252;-70
2022/07/09 16:14:16;;;;;;;3.78;2.30;;;;;;;21.58;50.29;100683.75;10444424;28;20068;-70
2022/07/09 16:19:17;;;;;;;8.65;4.95;;;;;;;21.41;51.07;100665.03;10448375;28;20101;-70
2022/07/09 16:24:19;;;;;;;6.80;3.80;;;;;;;21.34;50.02;100666.56;10448920;28;20206;-71
2022/07/09 16:29:21;;;;;;;4.28;2.45;;;;;;;21.46;49.70;100646.81;10448436;28;20150;-70
2022/07/09 16:34:23;;;;;;;5.35;2.78;;;;;;;21.73;49.39;100660.19;10449256;28;20408;-70
2022/07/09 16:39:27;;;;;;;3.85;2.50;;;;;;;22.00;48.79;100654.06;10447928;28;20083;-70
2022/07/09 16:44:29;;;;;;;5.85;2.78;;;;;;;22.26;48.29;100655.91;10446877;28;20138;-70
2022/07/09 16:49:31;;;;;;;5.38;2.55;;;;;;;22.69;48.19;100648.06;10442261;28;20130;-71
2022/07/09 16:54:52;;;;;;;5.43;2.80;;;;;;;22.76;47.56;100645.63;10443972;28;20063;-70
2022/07/09 16:59:54;;;;;;;5.68;2.60;;;;;;;22.85;47.18;100644.72;10445010;28;20048;-70
2022/07/09 17:05:14;;;;;;;4.88;2.70;;;;;;;22.96;46.64;100641.00;10439815;28;20398;-69
2022/07/09 17:10:16;;;;;;;5.63;2.95;;;;;;;23.23;46.09;100641.72;10439213;28;20416;-70
2022/07/09 17:15:18;;;;;;;6.95;2.83;;;;;;;23.28;46.33;100625.22;10440034;28;20139;-70
2022/07/09 17:20:21;;;;;;;8.80;3.15;;;;;;;23.14;46.63;100626.66;10439731;28;20072;-70
2022/07/09 17:25:22;;;;;;;6.55;2.90;;;;;;;23.02;47.02;100633.22;10436652;28;20052;-69
2022/07/09 17:30:24;;;;;;;5.18;2.90;;;;;;;23.10;46.97;100629.78;10437282;28;20326;-71
2022/07/09 17:35:27;;;;;;;5.07;2.63;;;;;;;23.33;46.55;100623.75;10439520;28;20044;-70
2022/07/09 17:40:29;;;;;;;5.53;3.13;;;;;;;23.28;46.65;100617.22;10440096;28;20416;-71
2022/07/09 17:45:31;;;;;;;4.38;2.60;;;;;;;23.18;47.11;100619.16;10439385;28;20075;-71
2022/07/09 17:50:33;;;;;;;5.82;2.63;;;;;;;23.07;47.11;100616.72;10440898;28;20051;-69
2022/07/09 17:55:35;;;;;;;5.07;2.33;;;;;;;22.86;46.40;100622.38;10441061;28;20544;-71
2022/07/09 18:00:38;;;;;;;3.88;2.20;;;;;;;23.02;44.63;100616.38;10459311;28;20140;-70
2022/07/09 18:05:40;;;;;;;3.85;2.30;;;;;;;23.04;43.17;100615.22;10459050;28;20178;-70
2022/07/09 18:10:43;;;;;;;4.18;2.22;;;;;;;22.90;43.60;100617.59;10460194;28;20134;-70
2022/07/09 18:15:44;;;;;;;5.97;2.70;;;;;;;22.81;44.32;100621.19;10456965;28;20140;-70
2022/07/09 18:20:48;;;;;;;4.10;2.42;;;;;;;22.49;44.68;100614.53;10458874;28;20827;-71
2022/07/09 18:25:50;;;;;;;3.95;2.17;;;;;;;22.47;44.87;100621.00;10442603;28;20052;-70
2022/07/09 18:30:54;;;;;;;5.20;2.53;;;;;;;22.48;44.91;100625.31;10465909;28;20103;-70
2022/07/09 18:35:56;;;;;;;5.15;2.38;;;;;;;22.39;45.53;100611.06;10466927;28;20377;-71
2022/07/09 18:41:09;;;;;;;4.43;2.67;;;;;;;22.33;46.71;100614.34;10467284;28;20411;-71
2022/07/09 18:46:11;;;;;;;4.95;2.90;;;;;;;22.28;47.44;100610.47;10466634;28;20378;-70
2022/07/09 18:51:13;;;;;;;4.32;2.80;;;;;;;22.06;48.13;100630.38;10467785;28;20072;-70
2022/07/09 18:56:14;;;;;;;98.30;63.80;;;;;;;22.03;48.34;100621.78;10467225;28;20126;-70
2022/07/09 19:01:17;;;;;;;8.25;5.20;;;;;;;22.01;47.96;100624.59;10467911;28;20139;-70
2022/07/09 19:06:18;;;;;;;6.53;3.47;;;;;;;21.91;47.76;100621.16;10465044;28;20143;-70
2022/07/09 19:11:20;;;;;;;5.00;3.00;;;;;;;21.67;49.17;100621.69;10465935;28;20080;-70
2022/07/09 19:16:22;;;;;;;5.55;3.10;;;;;;;21.49;50.37;100625.25;10463164;28;20099;-70
2022/07/09 19:21:24;;;;;;;6.30;3.25;;;;;;;21.44;50.75;100625.66;10467369;28;20080;-70
2022/07/09 19:26:26;;;;;;;6.57;2.90;;;;;;;21.47;51.14;100621.88;10446270;28;20488;-70
2022/07/09 19:36:49;;;;;;;5.72;3.92;;;;;;;21.12;52.69;100629.63;10433986;28;20059;-70
2022/07/09 19:41:51;;;;;;;24.05;14.88;;;;;;;21.05;52.61;100646.16;10418788;28;20575;-70
2022/07/09 19:46:53;;;;;;;20.98;11.85;;;;;;;20.98;52.27;100637.06;10439769;28;20298;-70
2022/07/09 19:51:55;;;;;;;5.50;3.38;;;;;;;20.99;51.27;100654.69;10441324;28;20057;-71
2022/07/09 19:56:57;;;;;;;6.85;2.78;;;;;;;20.96;51.17;100648.81;10459848;28;20076;-71
2022/07/09 20:01:59;;;;;;;3.83;2.70;;;;;;;20.82;51.37;100660.72;10461004;28;20048;-70
2022/07/09 20:07:01;;;;;;;5.03;2.65;;;;;;;20.56;51.68;100661.34;10466145;28;20135;-70
2022/07/09 20:12:04;;;;;;;6.95;2.80;;;;;;;20.34;52.28;100658.94;10467293;28;20506;-70
2022/07/09 20:17:06;;;;;;;5.03;3.00;;;;;;;20.16;52.90;100664.91;10464589;28;20064;-70
2022/07/09 20:22:08;;;;;;;4.82;2.95;;;;;;;20.10;53.23;100670.75;10459777;28;20178;-70
2022/07/09 20:27:11;;;;;;;5.45;2.80;;;;;;;19.99;53.58;100675.31;10464966;28;20048;-70
2022/07/09 20:32:14;;;;;;;5.00;3.00;;;;;;;19.89;52.92;100677.91;10468575;28;20048;-70
2022/07/09 20:37:15;;;;;;;4.93;2.67;;;;;;;19.70;53.24;100669.00;10466726;28;20127;-70
2022/07/09 20:42:18;;;;;;;4.20;2.75;;;;;;;19.52;53.63;100670.56;10449719;28;20483;-70
2022/07/09 20:47:19;;;;;;;4.22;2.50;;;;;;;19.37;53.90;100675.34;10466851;28;20137;-68
2022/07/09 20:52:21;;;;;;;3.60;2.30;;;;;;;19.37;53.05;100681.50;10467154;28;20568;-68
2022/07/09 20:57:23;;;;;;;6.70;2.22;;;;;;;19.35;51.52;100682.59;10466332;28;20122;-68
2022/07/09 21:02:25;;;;;;;5.15;1.70;;;;;;;19.32;49.32;100683.69;10466753;28;20055;-69
2022/07/09 21:07:27;;;;;;;5.88;1.60;;;;;;;19.28;48.74;100686.72;10467334;28;20396;-68
2022/07/09 21:12:29;;;;;;;3.67;1.70;;;;;;;19.14;47.91;100687.91;10466792;28;20484;-68
2022/07/09 21:22:51;;;;;;;5.40;1.83;;;;;;;18.93;47.80;100696.75;10467209;28;20047;-68
2022/07/09 21:27:53;;;;;;;4.50;1.77;;;;;;;18.91;47.56;100698.69;10465012;28;20478;-68
2022/07/09 21:32:55;;;;;;;4.47;1.92;;;;;;;18.85;48.18;100699.22;10466454;28;20403;-69
2022/07/09 21:37:57;;;;;;;4.00;1.77;;;;;;;18.77;47.74;100702.47;10467313;28;21076;-69
2022/07/09 21:42:59;;;;;;;3.95;1.70;;;;;;;18.63;48.56;100716.84;10466309;28;20475;-69
2022/07/09 21:48:02;;;;;;;5.82;1.88;;;;;;;18.55;48.47;100721.06;10465666;28;20080;-68
2022/07/09 21:53:04;;;;;;;5.40;1.73;;;;;;;18.48;48.59;100725.19;10466663;28;20118;-69
2022/07/09 21:58:06;;;;;;;9.73;2.00;;;;;;;18.43;49.06;100722.03;10435663;28;20132;-69
2022/07/09 22:03:08;;;;;;;5.32;1.73;;;;;;;18.36;48.62;100726.97;10464531;28;20311;-69
2022/07/09 22:08:10;;;;;;;5.90;1.95;;;;;;;18.30;48.96;100727.47;10445176;28;20056;-69
2022/07/09 22:13:11;;;;;;;3.53;1.70;;;;;;;18.12;48.92;100730.69;10465740;28;20176;-69
2022/07/09 22:18:13;;;;;;;5.55;1.70;;;;;;;17.98;49.01;100733.56;10464282;28;20119;-70
2022/07/09 22:23:15;;;;;;;4.45;1.60;;;;;;;17.82;49.24;100741.88;10465765;28;20049;-68
2022/07/09 22:28:17;;;;;;;4.57;1.75;;;;;;;17.62;49.48;100734.63;10464106;28;20121;-67
2022/07/09 22:33:18;;;;;;;6.68;1.67;;;;;;;17.54;50.07;100735.22;10466248;28;20142;-67
2022/07/09 22:38:20;;;;;;;6.40;1.80;;;;;;;17.45;50.06;100735.03;10464862;28;20137;-67
2022/07/09 22:43:22;;;;;;;4.97;1.60;;;;;;;17.50;49.96;100733.75;10465608;28;20135;-67
2022/07/09 22:48:24;;;;;;;5.05;1.83;;;;;;;17.27;50.72;100742.53;10446410;28;20148;-67
2022/07/09 22:53:26;;;;;;;6.32;2.05;;;;;;;17.27;50.72;100739.03;10464357;28;20147;-70
2022/07/09 22:58:27;;;;;;;4.97;1.80;;;;;;;17.30;50.60;100741.47;10465561;28;20206;-68
2022/07/09 23:03:29;;;;;;;5.85;1.88;;;;;;;17.16;50.88;100741.66;10463248;28;20127;-68
2022/07/09 23:13:52;;;;;;;9.18;2.30;;;;;;;16.74;51.94;100743.84;10465609;28;20131;-68
2022/07/09 23:18:55;;;;;;;8.57;1.90;;;;;;;16.66;52.23;100754.09;10471942;28;20040;-68
2022/07/09 23:23:59;;;;;;;4.18;1.80;;;;;;;16.61;52.55;100755.41;10471709;28;20131;-69
2022/07/09 23:29:00;;;;;;;7.10;2.00;;;;;;;16.54;52.29;100752.34;10470954;28;20058;-68